createdAt,value
2018-02-09T00:00:46.486Z,95.30
2018-02-09T00:03:14.901Z,93.40
2018-02-09T00:05:42.581Z,106.23
2018-02-09T00:08:10.042Z,91.87
2018-02-09T00:10:37.549Z,106.03
2018-02-09T00:13:05.000Z,99.75
2018-02-09T00:15:35.842Z,105.40
2018-02-09T00:18:03.424Z,94.40
2018-02-09T00:20:31.122Z,99.73
2018-02-09T00:22:58.871Z,107.23
2018-02-09T00:25:26.389Z,101.07
2018-02-09T00:27:53.889Z,90.87
2018-02-09T00:30:21.321Z,88.85
2018-02-09T00:32:48.944Z,102.62
2018-02-09T00:35:16.413Z,100.70
2018-02-09T00:37:43.903Z,97.72
2018-02-09T00:40:13.065Z,105.57
2018-02-09T00:42:40.537Z,105.50
2018-02-09T00:45:07.989Z,108.93
2018-02-09T00:47:35.456Z,100.10
2018-02-09T00:50:02.945Z,115.70
2018-02-09T00:52:30.454Z,98.32
2018-02-09T00:54:58.192Z,102.87
2018-02-09T00:57:26.932Z,100.80
2018-02-09T00:59:54.515Z,93.43
2018-02-09T01:02:22.723Z,106.37
2018-02-09T01:04:51.414Z,99.62
2018-02-09T01:07:18.875Z,107.67
2018-02-09T01:09:47.893Z,114.17
2018-02-09T01:12:15.620Z,98.37
2018-02-09T01:14:43.109Z,120.60
2018-02-09T01:17:10.587Z,96.97
2018-02-09T01:19:38.250Z,100.15
2018-02-09T01:22:05.728Z,111.87
2018-02-09T01:24:33.185Z,107.50
2018-02-09T01:27:00.649Z,109.40
2018-02-09T01:29:33.371Z,110.43
2018-02-09T01:32:02.352Z,103.27
2018-02-09T01:34:30.067Z,102.80
2018-02-09T01:36:57.528Z,111.90
2018-02-09T01:39:24.991Z,117.03
2018-02-09T01:41:52.469Z,112.43
2018-02-09T01:44:19.939Z,95.23
2018-02-09T01:46:47.400Z,107.67
2018-02-09T01:49:14.876Z,116.37
2018-02-09T01:51:42.375Z,119.82
2018-02-09T01:54:09.819Z,119.53
2018-02-09T01:56:38.162Z,102.07
2018-02-09T01:59:13.516Z,110.00
2018-02-09T02:01:40.984Z,103.57
2018-02-09T02:04:08.488Z,111.37
2018-02-09T02:06:35.980Z,103.93
2018-02-09T02:09:03.466Z,112.20
2018-02-09T02:11:30.964Z,102.83
2018-02-09T02:13:58.425Z,106.53
2018-02-09T02:16:26.110Z,118.60
2018-02-09T02:18:53.561Z,115.00
2018-02-09T02:21:21.008Z,117.00
2018-02-09T02:23:48.496Z,105.32
2018-02-09T02:26:17.454Z,112.15
2018-02-09T02:28:44.918Z,121.40
2018-02-09T02:31:12.406Z,120.23
2018-02-09T02:33:39.876Z,115.67
2018-02-09T02:36:07.337Z,99.18
2018-02-09T02:38:35.735Z,99.30
2018-02-09T02:41:03.180Z,112.57
2018-02-09T02:43:30.651Z,121.67
2018-02-09T02:45:58.116Z,105.28
2018-02-09T02:48:25.608Z,116.00
2018-02-09T02:50:53.057Z,110.17
2018-02-09T02:53:20.529Z,110.93
2018-02-09T02:55:48.004Z,119.03
2018-02-09T02:58:16.224Z,111.37
2018-02-09T03:00:43.940Z,108.57
2018-02-09T03:03:11.396Z,102.83
2018-02-09T03:05:38.859Z,98.53
2018-02-09T03:08:06.357Z,114.32
2018-02-09T03:10:33.856Z,102.47
2018-02-09T03:13:01.501Z,113.23
2018-02-09T03:15:33.078Z,100.57
2018-02-09T03:18:00.557Z,105.97
2018-02-09T03:20:28.033Z,101.13
2018-02-09T03:22:55.483Z,98.93
2018-02-09T03:25:22.961Z,111.37
2018-02-09T03:27:50.533Z,109.40
2018-02-09T03:30:18.059Z,105.63
2018-02-09T03:32:45.536Z,102.10
2018-02-09T03:35:13.012Z,108.03
2018-02-09T03:37:43.145Z,108.72
2018-02-09T03:40:11.567Z,98.07
2018-02-09T03:42:39.137Z,99.25
2018-02-09T03:45:06.606Z,100.33
2018-02-09T03:47:34.190Z,98.73
2018-02-09T03:50:01.674Z,96.37
2018-02-09T03:52:30.818Z,94.63
2018-02-09T03:54:58.508Z,105.03
2018-02-09T03:57:25.963Z,98.57
2018-02-09T03:59:53.424Z,107.25
2018-02-09T04:02:20.913Z,110.00
2018-02-09T04:04:48.408Z,106.33
2018-02-09T04:07:15.885Z,93.50
2018-02-09T04:09:43.416Z,98.72
2018-02-09T04:12:12.521Z,96.28
2018-02-09T04:14:40.315Z,105.15
2018-02-09T04:17:12.385Z,109.33
2018-02-09T04:19:39.824Z,105.60
2018-02-09T04:22:07.597Z,96.03
2018-02-09T04:24:35.153Z,98.00
2018-02-09T04:27:02.732Z,99.37
2018-02-09T04:29:30.257Z,103.00
2018-02-09T04:31:57.781Z,99.85
2018-02-09T04:34:25.268Z,107.10
2018-02-09T04:36:54.157Z,99.00
2018-02-09T04:39:21.804Z,90.40
2018-02-09T04:41:49.272Z,95.87
2018-02-09T04:44:16.745Z,93.33
2018-02-09T04:46:44.219Z,99.30
2018-02-09T04:49:16.648Z,87.62
2018-02-09T04:51:44.144Z,100.00
2018-02-09T04:54:11.589Z,97.20
2018-02-09T04:56:39.044Z,104.43
2018-02-09T04:59:07.466Z,89.57
2018-02-09T05:01:34.932Z,96.40
2018-02-09T05:04:02.427Z,116.82
2018-02-09T05:06:29.976Z,103.57
2018-02-09T05:08:57.438Z,102.20
2018-02-09T05:11:24.916Z,107.72
2018-02-09T05:13:52.369Z,90.87
2018-02-09T05:16:19.853Z,102.90
2018-02-09T05:18:47.666Z,104.90
2018-02-09T05:21:17.176Z,107.28
2018-02-09T05:23:44.681Z,103.95
2018-02-09T05:26:12.130Z,103.07
2018-02-09T05:28:40.409Z,93.13
2018-02-09T05:31:07.993Z,96.17
2018-02-09T05:33:35.467Z,98.57
2018-02-09T05:36:02.908Z,107.95
2018-02-09T05:38:30.425Z,94.03
2018-02-09T05:40:57.880Z,104.37
2018-02-09T05:43:25.360Z,99.77
2018-02-09T05:45:52.895Z,100.85
2018-02-09T05:48:27.724Z,89.35
2018-02-09T05:50:55.177Z,104.30
2018-02-09T05:53:22.678Z,109.53
2018-02-09T05:55:50.313Z,101.90
2018-02-09T05:58:17.793Z,107.87
2018-02-09T06:00:45.262Z,101.62
2018-02-09T06:03:12.898Z,96.78
2018-02-09T06:05:40.377Z,102.07
2018-02-09T06:08:10.044Z,99.03
2018-02-09T06:10:39.218Z,96.50
2018-02-09T06:13:06.804Z,99.97
2018-02-09T06:15:34.478Z,105.07
2018-02-09T06:18:01.951Z,93.80
2018-02-09T06:20:30.396Z,94.03
2018-02-09T06:22:58.033Z,98.80
2018-02-09T06:25:25.499Z,128.90
2018-02-09T06:27:52.946Z,99.70
2018-02-09T06:30:20.592Z,100.12
2018-02-09T06:32:48.188Z,100.25
2018-02-09T06:35:19.801Z,102.87
2018-02-09T06:37:47.484Z,107.58
2018-02-09T06:40:14.983Z,90.87
2018-02-09T06:42:42.626Z,101.00
2018-02-09T06:45:10.092Z,98.35
2018-02-09T06:47:37.649Z,108.00
2018-02-09T06:50:13.408Z,94.67
2018-02-09T06:52:40.885Z,105.57
2018-02-09T06:55:08.325Z,92.73
2018-02-09T06:57:35.784Z,98.33
2018-02-09T07:00:03.256Z,98.97
2018-02-09T07:02:30.771Z,88.63
2018-02-09T07:04:58.240Z,97.60
2018-02-09T07:07:26.625Z,96.70
2018-02-09T07:09:54.089Z,103.77
2018-02-09T07:12:21.597Z,88.80
2018-02-09T07:14:49.076Z,102.68
2018-02-09T07:17:16.529Z,100.53
2018-02-09T07:19:47.543Z,109.10
2018-02-09T07:22:16.689Z,93.00
2018-02-09T07:24:44.244Z,107.68
2018-02-09T07:27:11.702Z,118.53
2018-02-09T07:29:39.204Z,96.55
2018-02-09T07:32:06.957Z,91.60
2018-02-09T07:34:34.944Z,116.07
2018-02-09T07:37:02.412Z,101.47
2018-02-09T07:39:29.897Z,107.00
2018-02-09T07:41:57.363Z,109.50
2018-02-09T07:44:24.858Z,105.77
2018-02-09T07:46:52.298Z,104.20
2018-02-09T07:49:19.809Z,98.93
2018-02-09T07:51:47.408Z,99.80
2018-02-09T07:54:14.868Z,88.87
2018-02-09T07:56:42.324Z,102.12
2018-02-09T07:59:09.877Z,99.25
2018-02-09T08:01:38.857Z,98.53
2018-02-09T08:04:06.325Z,109.20
2018-02-09T08:06:37.700Z,97.33
2018-02-09T08:09:05.150Z,99.80
2018-02-09T08:11:33.109Z,98.57
2018-02-09T08:14:00.585Z,105.47
2018-02-09T08:16:28.112Z,111.07
2018-02-09T08:18:55.585Z,108.97
2018-02-09T08:21:23.082Z,96.63
2018-02-09T08:23:50.664Z,106.50
2018-02-09T08:26:18.140Z,107.67
2018-02-09T08:28:45.599Z,105.03
2018-02-09T08:31:13.086Z,111.37
2018-02-09T08:33:41.256Z,104.85
2018-02-09T08:36:12.792Z,112.30
2018-02-09T08:38:40.244Z,97.83
2018-02-09T08:41:07.727Z,90.97
2018-02-09T08:43:35.442Z,104.87
2018-02-09T08:46:02.879Z,100.67
2018-02-09T08:48:31.916Z,111.78
2018-02-09T08:50:59.389Z,108.97
2018-02-09T08:53:26.881Z,114.85
2018-02-09T08:55:54.363Z,107.63
2018-02-09T08:58:21.849Z,106.57
2018-02-09T09:00:50.737Z,110.14
2018-02-09T09:03:18.205Z,88.93
2018-02-09T09:05:45.680Z,90.23
2018-02-09T09:08:13.465Z,80.33
2018-02-09T09:10:42.100Z,85.40
2018-02-09T09:13:09.567Z,97.62
2018-02-09T09:15:37.069Z,96.17
2018-02-09T09:18:04.519Z,93.93
2018-02-09T09:20:31.980Z,75.57
2018-02-09T09:22:59.644Z,80.78
2018-02-09T09:25:27.139Z,82.30
2018-02-09T09:27:54.610Z,78.47
2018-02-09T09:30:22.988Z,85.28
2018-02-09T09:32:50.445Z,66.97
2018-02-09T09:35:17.900Z,75.73
2018-02-09T09:37:49.684Z,86.40
2018-02-09T09:40:18.088Z,77.80
2018-02-09T09:42:45.575Z,75.18
2018-02-09T09:45:13.176Z,83.37
2018-02-09T09:47:40.940Z,79.72
2018-02-09T09:50:08.426Z,78.57
2018-02-09T09:52:39.686Z,77.10
2018-02-09T09:55:07.596Z,91.43
2018-02-09T09:57:35.053Z,92.67
2018-02-09T10:00:03.275Z,80.03
2018-02-09T10:02:45.501Z,103.97
2018-02-09T10:05:12.968Z,82.57
2018-02-09T10:07:44.956Z,95.73
2018-02-09T10:10:12.582Z,85.10
2018-02-09T10:12:40.064Z,79.53
2018-02-09T10:15:07.628Z,92.10
2018-02-09T10:17:35.090Z,81.05
2018-02-09T10:20:02.556Z,97.57
2018-02-09T10:22:29.996Z,74.75
2018-02-09T10:24:58.392Z,94.03
2018-02-09T10:27:25.838Z,83.77
2018-02-09T10:29:53.325Z,76.97
2018-02-09T10:32:20.837Z,76.63
2018-02-09T10:34:49.041Z,79.70
2018-02-09T10:37:18.955Z,85.57
2018-02-09T10:39:46.396Z,82.53
2018-02-09T10:42:14.260Z,78.60
2018-02-09T10:44:43.236Z,67.70
2018-02-09T10:47:10.693Z,70.47
2018-02-09T10:49:38.498Z,83.17
2018-02-09T10:52:05.936Z,74.50
2018-02-09T10:54:36.464Z,65.05
2018-02-09T10:57:03.913Z,82.85
2018-02-09T10:59:32.074Z,90.90
2018-02-09T11:01:59.556Z,61.85
2018-02-09T11:04:27.060Z,80.07
2018-02-09T11:06:54.545Z,73.05
2018-02-09T11:09:27.687Z,69.00
2018-02-09T11:12:01.717Z,63.95
2018-02-09T11:14:30.235Z,63.70
2018-02-09T11:16:57.940Z,64.68
2018-02-09T11:19:25.433Z,71.40
2018-02-09T11:21:52.945Z,66.70
2018-02-09T11:24:20.423Z,68.97
2018-02-09T11:26:47.934Z,60.00
2018-02-09T11:29:15.411Z,62.10
2018-02-09T11:31:42.884Z,70.82
2018-02-09T11:34:12.029Z,60.27
2018-02-09T11:36:39.506Z,59.13
2018-02-09T11:39:06.962Z,77.72
2018-02-09T11:41:36.222Z,58.53
2018-02-09T11:44:03.749Z,60.55
2018-02-09T11:46:31.209Z,63.40
2018-02-09T11:48:58.652Z,58.63
2018-02-09T11:51:26.265Z,57.10
2018-02-09T11:53:58.110Z,64.13
2018-02-09T11:56:25.638Z,59.90
2018-02-09T11:58:53.179Z,51.53
2018-02-09T12:01:21.211Z,52.20
2018-02-09T12:03:48.671Z,61.33
2018-02-09T12:06:16.228Z,55.10
2018-02-09T12:08:43.670Z,62.57
2018-02-09T12:11:11.172Z,66.50
2018-02-09T12:13:39.429Z,59.75
2018-02-09T12:16:06.880Z,52.80
2018-02-09T12:18:34.374Z,52.30
2018-02-09T12:21:01.857Z,56.85
2018-02-09T12:23:30.076Z,52.90
2018-02-09T12:25:58.478Z,68.23
2018-02-09T12:28:25.969Z,55.65
2018-02-09T12:30:53.411Z,48.30
2018-02-09T12:33:20.965Z,62.20
2018-02-09T12:35:48.485Z,49.90
2018-02-09T12:38:16.048Z,47.60
2018-02-09T12:40:43.540Z,52.25
2018-02-09T12:43:11.020Z,51.13
2018-02-09T12:45:38.563Z,47.55
2018-02-09T12:48:07.145Z,50.77
2018-02-09T12:50:34.592Z,59.27
2018-02-09T12:53:02.068Z,58.50
2018-02-09T12:55:29.512Z,56.70
2018-02-09T12:57:56.984Z,54.15
2018-02-09T13:00:24.432Z,48.53
2018-02-09T13:02:51.889Z,52.67
2018-02-09T13:05:19.349Z,47.37
2018-02-09T13:07:46.812Z,58.33
2018-02-09T13:10:18.849Z,45.70
2018-02-09T13:12:59.712Z,45.70
2018-02-09T13:15:27.600Z,45.08
2018-02-09T13:17:55.067Z,43.10
2018-02-09T13:20:22.534Z,52.17
2018-02-09T13:25:53.176Z,46.80
2018-02-09T13:31:22.925Z,54.63
2018-02-09T13:33:50.669Z,49.00
2018-02-09T13:36:18.125Z,53.13
2018-02-09T13:38:46.346Z,45.80
2018-02-09T13:41:17.079Z,53.15
2018-02-09T13:43:44.510Z,48.33
2018-02-09T13:46:13.581Z,58.75
2018-02-09T13:48:42.111Z,45.97
2018-02-09T13:51:09.548Z,45.30
2018-02-09T13:53:37.708Z,50.75
2018-02-09T13:56:08.941Z,63.03
2018-02-09T13:58:36.452Z,50.08
2018-02-09T14:01:03.984Z,50.90
2018-02-09T14:03:33.118Z,47.42
2018-02-09T14:06:00.663Z,46.10
2018-02-09T14:08:28.132Z,46.03
2018-02-09T14:10:55.624Z,48.97
2018-02-09T14:13:23.096Z,45.17
2018-02-09T14:15:52.264Z,43.87
2018-02-09T14:18:22.165Z,50.97
2018-02-09T14:20:50.396Z,49.90
2018-02-09T14:23:18.632Z,43.17
2018-02-09T14:25:46.805Z,50.95
2018-02-09T14:28:14.252Z,48.50
2018-02-09T14:30:41.784Z,55.07
2018-02-09T14:33:09.241Z,61.23
2018-02-09T14:35:36.732Z,46.17
2018-02-09T14:38:04.185Z,43.05
2018-02-09T14:40:31.666Z,56.00
2018-02-09T14:43:02.679Z,50.45
2018-02-09T14:45:31.545Z,50.67
2018-02-09T14:47:58.997Z,56.10
2018-02-09T14:50:26.485Z,49.58
2018-02-09T14:52:53.940Z,52.13
2018-02-09T14:55:21.404Z,66.33
2018-02-09T14:57:48.872Z,44.05
2018-02-09T15:00:16.390Z,47.22
2018-02-09T15:02:44.665Z,53.13
2018-02-09T15:05:12.140Z,43.87
2018-02-09T15:07:39.596Z,44.57
2018-02-09T15:10:07.080Z,53.83
2018-02-09T15:12:34.552Z,41.08
2018-02-09T15:15:02.052Z,44.93
2018-02-09T15:17:29.528Z,53.20
2018-02-09T15:19:57.227Z,51.08
2018-02-09T15:22:24.769Z,46.33
2018-02-09T15:24:52.649Z,45.03
2018-02-09T15:27:21.074Z,58.43
2018-02-09T15:29:48.536Z,52.63
2018-02-09T15:32:16.029Z,49.95
2018-02-09T15:34:43.476Z,51.15
2018-02-09T15:37:13.076Z,55.08
2018-02-09T15:39:40.556Z,54.23
2018-02-09T15:42:08.030Z,46.80
2018-02-09T15:44:36.405Z,38.13
2018-02-09T15:47:04.160Z,49.70
2018-02-09T15:49:31.600Z,47.72
2018-02-09T15:51:59.079Z,56.60
2018-02-09T15:54:26.524Z,49.43
2018-02-09T15:56:54.014Z,58.72
2018-02-09T15:59:21.513Z,53.30
2018-02-09T16:01:49.932Z,51.70
2018-02-09T16:04:17.364Z,42.33
2018-02-09T16:06:44.852Z,49.47
2018-02-09T16:09:12.440Z,47.87
2018-02-09T16:11:39.920Z,45.03
2018-02-09T16:14:07.368Z,49.42
2018-02-09T16:16:34.852Z,48.67
2018-02-09T16:19:02.329Z,47.73
2018-02-09T16:21:30.009Z,55.90
2018-02-09T16:23:58.286Z,52.90
2018-02-09T16:26:26.039Z,57.30
2018-02-09T16:28:54.296Z,49.70
2018-02-09T16:31:22.685Z,46.17
2018-02-09T16:33:50.156Z,47.37
2018-02-09T16:36:17.600Z,51.53
2018-02-09T16:38:45.057Z,57.03
2018-02-09T16:41:13.309Z,51.83
2018-02-09T16:43:44.158Z,40.10
2018-02-09T16:46:11.946Z,49.30
2018-02-09T16:48:39.484Z,51.00
2018-02-09T16:51:06.945Z,54.10
2018-02-09T16:53:34.525Z,52.97
2018-02-09T16:56:02.798Z,50.20
2018-02-09T16:58:30.301Z,54.88
2018-02-09T17:00:57.744Z,56.00
2018-02-09T17:03:26.656Z,48.22
2018-02-09T17:05:54.224Z,48.97
2018-02-09T17:08:21.673Z,64.33
2018-02-09T17:10:49.164Z,48.90
2018-02-09T17:13:16.610Z,50.47
2018-02-09T17:15:48.859Z,54.72
2018-02-09T17:18:16.328Z,63.00
2018-02-09T17:20:44.084Z,52.37
2018-02-09T17:23:11.555Z,54.37
2018-02-09T17:25:40.529Z,58.10
2018-02-09T17:28:08.022Z,62.57
2018-02-09T17:30:35.702Z,58.57
2018-02-09T17:33:03.142Z,54.67
2018-02-09T17:35:31.612Z,54.60
2018-02-09T17:37:59.312Z,58.13
2018-02-09T17:40:26.779Z,64.50
2018-02-09T17:42:54.217Z,54.80
2018-02-09T17:45:21.724Z,57.35
2018-02-09T17:47:49.180Z,58.50
2018-02-09T17:50:16.678Z,60.67
2018-02-09T17:52:44.188Z,59.53
2018-02-09T17:55:11.649Z,56.53
2018-02-09T17:57:39.124Z,57.55
2018-02-09T18:00:07.264Z,58.15
2018-02-09T18:02:34.717Z,57.28
2018-02-09T18:05:02.198Z,53.60
2018-02-09T18:07:29.652Z,57.33
2018-02-09T18:09:57.240Z,56.55
2018-02-09T18:12:24.704Z,55.25
2018-02-09T18:14:52.155Z,49.47
2018-02-09T18:17:19.612Z,57.53
2018-02-09T18:19:47.065Z,58.63
2018-02-09T18:22:16.061Z,56.08
2018-02-09T18:24:43.520Z,51.90
2018-02-09T18:27:11.095Z,56.33
2018-02-09T18:29:40.301Z,52.30
2018-02-09T18:32:07.768Z,64.82
2018-02-09T18:34:36.034Z,58.47
2018-02-09T18:37:03.468Z,52.90
2018-02-09T18:39:30.948Z,52.97
2018-02-09T18:41:59.320Z,62.83
2018-02-09T18:44:26.803Z,55.15
2018-02-09T18:46:54.300Z,53.07
2018-02-09T18:49:21.752Z,55.03
2018-02-09T18:51:49.532Z,65.05
2018-02-09T18:54:17.000Z,72.27
2018-02-09T18:56:44.483Z,67.37
2018-02-09T18:59:11.953Z,57.80
2018-02-09T19:01:39.420Z,52.73
2018-02-09T19:04:06.908Z,56.33
2018-02-09T19:06:34.437Z,55.73
2018-02-09T19:09:03.260Z,58.38
2018-02-09T19:11:30.741Z,60.38
2018-02-09T19:13:58.243Z,60.30
2018-02-09T19:16:29.024Z,60.72
2018-02-09T19:18:57.199Z,56.00
2018-02-09T19:21:24.653Z,60.50
2018-02-09T19:23:52.172Z,61.80
2018-02-09T19:26:19.604Z,51.23
2018-02-09T19:28:47.159Z,61.20
2018-02-09T19:31:14.596Z,55.10
2018-02-09T19:33:42.261Z,59.27
2018-02-09T19:36:11.643Z,63.58
2018-02-09T19:38:39.133Z,52.50
2018-02-09T19:41:06.607Z,56.20
2018-02-09T19:43:34.070Z,57.90
2018-02-09T19:46:01.598Z,53.97
2018-02-09T19:48:29.082Z,58.58
2018-02-09T19:50:56.574Z,65.13
2018-02-09T19:53:24.713Z,64.18
2018-02-09T19:55:52.215Z,62.30
2018-02-09T19:58:19.729Z,61.87
2018-02-09T20:00:47.223Z,56.15
2018-02-09T20:03:14.737Z,64.10
2018-02-09T20:05:42.267Z,72.57
2018-02-09T20:08:09.745Z,57.77
2018-02-09T20:10:37.324Z,60.50
2018-02-09T20:13:04.766Z,62.80
2018-02-09T20:15:32.960Z,63.70
2018-02-09T20:18:00.473Z,61.03
2018-02-09T20:20:27.924Z,47.83
2018-02-09T20:22:55.387Z,61.53
2018-02-09T20:25:23.640Z,59.78
2018-02-09T20:27:51.330Z,65.05
2018-02-09T20:30:18.839Z,89.13
2018-02-09T20:32:50.975Z,62.67
2018-02-09T20:35:18.448Z,59.13
2018-02-09T20:37:45.975Z,72.82
2018-02-09T20:40:13.456Z,56.90
2018-02-09T20:42:41.824Z,57.65
2018-02-09T20:45:10.071Z,58.63
2018-02-09T20:47:37.567Z,66.47
2018-02-09T20:50:05.048Z,55.53
2018-02-09T20:52:33.444Z,64.43
2018-02-09T20:55:00.934Z,56.65
2018-02-09T20:57:28.432Z,59.03
2018-02-09T20:59:55.919Z,66.57
2018-02-09T21:02:23.431Z,54.63
2018-02-09T21:04:50.936Z,68.20
2018-02-09T21:07:18.393Z,63.83
2018-02-09T21:09:45.936Z,71.63
2018-02-09T21:12:14.892Z,60.43
2018-02-09T21:14:42.425Z,62.10
2018-02-09T21:17:10.746Z,65.70
2018-02-09T21:19:38.260Z,72.93
2018-02-09T21:22:05.731Z,60.50
2018-02-09T21:24:33.792Z,61.65
2018-02-09T21:27:02.027Z,67.87
2018-02-09T21:29:29.567Z,70.83
2018-02-09T21:31:57.294Z,57.53
2018-02-09T21:34:24.809Z,60.33
2018-02-09T21:36:53.120Z,64.70
2018-02-09T21:39:20.616Z,59.93
2018-02-09T21:41:48.197Z,65.83
2018-02-09T21:44:15.685Z,58.83
2018-02-09T21:46:43.204Z,58.73
2018-02-09T21:49:14.195Z,60.40
2018-02-09T21:51:42.411Z,63.42
2018-02-09T21:54:09.909Z,58.05
2018-02-09T21:56:37.404Z,61.63
2018-02-09T21:59:04.898Z,59.63
2018-02-09T22:01:32.393Z,63.00
2018-02-09T22:03:59.836Z,56.67
2018-02-09T22:06:27.334Z,55.05
2018-02-09T22:08:56.524Z,58.97
2018-02-09T22:11:23.993Z,66.27
2018-02-09T22:13:51.636Z,64.87
2018-02-09T22:16:19.178Z,59.00
2018-02-09T22:18:46.658Z,59.67
2018-02-09T22:21:14.410Z,57.33
2018-02-09T22:23:41.856Z,60.67
2018-02-09T22:26:09.989Z,58.60
2018-02-09T22:28:37.490Z,68.47
2018-02-09T22:31:05.048Z,61.33
2018-02-09T22:33:32.714Z,60.10
2018-02-09T22:36:04.523Z,53.43
2018-02-09T22:38:32.035Z,59.93
2018-02-09T22:40:59.766Z,63.95
2018-02-09T22:43:27.235Z,56.57
2018-02-09T22:45:54.765Z,64.10
2018-02-09T22:48:22.221Z,54.13
2018-02-09T22:50:49.769Z,61.15
2018-02-09T22:53:17.299Z,52.87
2018-02-09T22:55:45.607Z,62.03
2018-02-09T22:58:14.252Z,58.47
2018-02-09T23:00:41.753Z,61.57
2018-02-09T23:03:09.258Z,55.60
2018-02-09T23:05:36.734Z,53.60
2018-02-09T23:08:04.984Z,64.20
2018-02-09T23:10:33.437Z,60.32
2018-02-09T23:13:00.932Z,55.93
2018-02-09T23:15:28.385Z,59.03
2018-02-09T23:17:55.870Z,65.28
2018-02-09T23:20:27.571Z,58.40
2018-02-09T23:22:55.030Z,49.37
2018-02-09T23:25:22.528Z,58.47
2018-02-09T23:27:50.772Z,49.13
2018-02-09T23:30:19.045Z,49.93
2018-02-09T23:32:46.694Z,56.88
2018-02-09T23:35:14.185Z,49.50
2018-02-09T23:37:45.548Z,66.00
2018-02-09T23:40:13.047Z,48.97
2018-02-09T23:42:40.790Z,59.42
2018-02-09T23:45:08.270Z,52.93
2018-02-09T23:47:36.912Z,57.88
2018-02-09T23:50:04.410Z,58.33
2018-02-09T23:52:35.809Z,50.27
2018-02-09T23:55:03.471Z,50.33
2018-02-09T23:57:31.948Z,53.00
2018-02-09T23:59:59.408Z,52.47
